createdAt,value
2018-01-03T00:02:17.484Z,25.80
2018-01-03T00:04:45.157Z,36.80
2018-01-03T00:07:12.739Z,23.60
2018-01-03T00:09:40.344Z,19.77
2018-01-03T00:12:07.984Z,27.50
2018-01-03T00:14:35.561Z,20.73
2018-01-03T00:17:03.181Z,28.90
2018-01-03T00:19:30.788Z,25.33
2018-01-03T00:21:58.391Z,20.40
2018-01-03T00:24:26.014Z,23.57
2018-01-03T00:26:53.620Z,21.40
2018-01-03T00:29:21.222Z,21.27
2018-01-03T00:31:48.850Z,22.73
2018-01-03T00:34:16.452Z,25.73
2018-01-03T00:36:44.064Z,22.53
2018-01-03T00:39:11.728Z,19.10
2018-01-03T00:41:39.396Z,26.73
2018-01-03T00:44:07.024Z,19.07
2018-01-03T00:46:34.667Z,23.00
2018-01-03T00:49:02.294Z,20.20
2018-01-03T00:51:30.196Z,19.90
2018-01-03T00:53:57.820Z,21.67
2018-01-03T00:56:25.464Z,21.97
2018-01-03T00:58:53.391Z,21.33
2018-01-03T01:01:20.992Z,17.27
2018-01-03T01:03:48.607Z,22.57
2018-01-03T01:06:16.226Z,17.60
2018-01-03T01:08:43.847Z,19.63
2018-01-03T01:11:11.447Z,16.67
2018-01-03T01:13:39.036Z,15.77
2018-01-03T01:16:06.656Z,21.00
2018-01-03T01:18:34.255Z,21.00
2018-01-03T01:21:01.905Z,19.00
2018-01-03T01:23:29.531Z,19.50
2018-01-03T01:25:57.123Z,13.57
2018-01-03T01:28:24.759Z,16.40
2018-01-03T01:30:52.708Z,14.03
2018-01-03T01:33:20.331Z,18.23
2018-01-03T01:35:47.926Z,17.10
2018-01-03T01:40:49.363Z,22.70
2018-01-03T01:43:16.990Z,25.47
2018-01-03T01:45:44.638Z,14.77
2018-01-03T01:48:12.504Z,17.70
2018-01-03T01:50:40.077Z,15.43
2018-01-03T01:53:07.741Z,18.03
2018-01-03T01:55:35.335Z,19.23
2018-01-03T01:58:02.966Z,17.97
2018-01-03T02:00:30.545Z,16.37
2018-01-03T02:02:58.130Z,21.43
2018-01-03T02:05:25.791Z,22.27
2018-01-03T02:07:53.398Z,16.90
2018-01-03T02:10:21.027Z,18.00
2018-01-03T02:12:48.622Z,19.97
2018-01-03T02:15:16.244Z,19.73
2018-01-03T02:17:43.848Z,17.50
2018-01-03T02:20:11.416Z,14.03
2018-01-03T02:22:39.368Z,17.83
2018-01-03T02:25:06.953Z,13.10
2018-01-03T02:27:34.531Z,19.67
2018-01-03T02:30:02.418Z,15.40
2018-01-03T02:32:30.015Z,19.40
2018-01-03T02:34:57.996Z,22.07
2018-01-03T02:37:25.573Z,18.07
2018-01-03T02:39:53.176Z,14.27
2018-01-03T02:42:20.788Z,20.37
2018-01-03T02:44:48.644Z,18.93
2018-01-03T02:47:16.296Z,17.53
2018-01-03T02:49:43.862Z,19.97
2018-01-03T02:52:11.446Z,14.03
2018-01-03T02:54:39.069Z,15.97
2018-01-03T02:57:06.661Z,14.47
2018-01-03T02:59:34.299Z,17.93
2018-01-03T03:02:02.294Z,16.00
2018-01-03T03:04:29.910Z,20.73
2018-01-03T03:06:57.520Z,14.70
2018-01-03T03:09:25.106Z,17.27
2018-01-03T03:11:52.719Z,15.30
2018-01-03T03:14:20.298Z,19.07
2018-01-03T03:16:47.910Z,23.83
2018-01-03T03:19:15.559Z,26.17
2018-01-03T03:21:43.144Z,20.47
2018-01-03T03:24:10.775Z,20.27
2018-01-03T03:26:38.363Z,21.50
2018-01-03T03:29:05.957Z,16.53
2018-01-03T03:31:33.567Z,17.67
2018-01-03T03:34:01.143Z,20.43
2018-01-03T03:36:28.795Z,16.33
2018-01-03T03:38:56.386Z,15.40
2018-01-03T03:41:24.694Z,20.40
2018-01-03T03:43:52.302Z,18.80
2018-01-03T03:46:19.894Z,17.17
2018-01-03T03:48:47.780Z,24.93
2018-01-03T03:51:16.301Z,28.60
2018-01-03T03:53:44.232Z,17.47
2018-01-03T03:56:11.840Z,15.10
2018-01-03T03:58:39.417Z,18.57
2018-01-03T04:01:07.059Z,21.20
2018-01-03T04:03:34.631Z,18.83
2018-01-03T04:06:02.215Z,19.70
2018-01-03T04:08:29.831Z,18.23
2018-01-03T04:10:57.408Z,17.00
2018-01-03T04:13:25.050Z,18.60
2018-01-03T04:15:52.632Z,19.57
2018-01-03T04:18:20.213Z,13.87
2018-01-03T04:20:47.828Z,17.13
2018-01-03T04:23:15.525Z,21.43
2018-01-03T04:25:43.181Z,14.20
2018-01-03T04:28:11.017Z,17.70
2018-01-03T04:30:38.596Z,13.27
2018-01-03T04:33:06.739Z,16.67
2018-01-03T04:35:34.320Z,13.00
2018-01-03T04:38:02.291Z,12.83
2018-01-03T04:40:29.872Z,14.93
2018-01-03T04:42:57.817Z,12.80
2018-01-03T04:45:25.449Z,11.43
2018-01-03T04:47:53.037Z,16.60
2018-01-03T04:50:20.672Z,14.27
2018-01-03T04:52:48.271Z,18.03
2018-01-03T04:55:15.840Z,30.27
2018-01-03T04:57:43.786Z,17.43
2018-01-03T05:00:11.383Z,16.40
2018-01-03T05:02:39.043Z,17.07
2018-01-03T05:05:06.647Z,16.47
2018-01-03T05:07:34.229Z,21.90
2018-01-03T05:10:01.866Z,20.53
2018-01-03T05:12:29.450Z,12.17
2018-01-03T05:14:57.056Z,18.07
2018-01-03T05:17:24.980Z,16.20
2018-01-03T05:19:52.556Z,14.63
2018-01-03T05:22:20.163Z,19.20
2018-01-03T05:24:47.796Z,19.87
2018-01-03T05:27:15.437Z,19.53
2018-01-03T05:29:43.301Z,23.87
2018-01-03T05:32:11.168Z,23.87
2018-01-03T05:34:38.875Z,16.40
2018-01-03T05:37:06.475Z,22.93
2018-01-03T05:39:34.103Z,26.47
2018-01-03T05:42:01.695Z,14.80
2018-01-03T05:44:29.270Z,25.77
2018-01-03T05:46:56.879Z,21.97
2018-01-03T05:49:24.446Z,15.23
2018-01-03T05:51:52.072Z,23.57
2018-01-03T05:54:19.934Z,22.77
2018-01-03T05:56:47.554Z,15.63
2018-01-03T05:59:15.160Z,16.77
2018-01-03T06:01:42.764Z,16.93
2018-01-03T06:04:10.687Z,14.87
2018-01-03T06:06:38.271Z,17.13
2018-01-03T06:09:05.879Z,17.30
2018-01-03T06:11:33.535Z,19.60
2018-01-03T06:14:01.116Z,18.37
2018-01-03T06:16:28.753Z,13.27
2018-01-03T06:18:56.392Z,14.73
2018-01-03T06:21:23.975Z,23.80
2018-01-03T06:23:51.585Z,19.10
2018-01-03T06:26:19.194Z,22.23
2018-01-03T06:28:46.827Z,23.37
2018-01-03T06:31:14.394Z,25.60
2018-01-03T06:33:41.977Z,17.67
2018-01-03T06:36:09.658Z,16.70
2018-01-03T06:38:37.278Z,20.37
2018-01-03T06:41:05.676Z,16.67
2018-01-03T06:43:33.256Z,20.17
2018-01-03T06:46:00.843Z,22.00
2018-01-03T06:48:28.509Z,29.07
2018-01-03T06:50:56.085Z,30.70
2018-01-03T06:53:23.907Z,19.43
2018-01-03T06:55:51.507Z,18.40
2018-01-03T06:58:19.106Z,40.83
2018-01-03T07:00:46.726Z,20.50
2018-01-03T07:03:14.309Z,28.60
2018-01-03T07:05:41.921Z,21.33
2018-01-03T07:08:09.827Z,19.07
2018-01-03T07:10:37.409Z,19.83
2018-01-03T07:13:05.020Z,21.10
2018-01-03T07:15:32.646Z,16.67
2018-01-03T07:18:00.295Z,23.00
2018-01-03T07:20:27.873Z,18.90
2018-01-03T07:22:55.451Z,20.10
2018-01-03T07:25:23.059Z,20.13
2018-01-03T07:27:50.636Z,21.67
2018-01-03T07:30:18.248Z,24.97
2018-01-03T07:32:46.144Z,19.13
2018-01-03T07:35:14.135Z,23.70
2018-01-03T07:37:41.754Z,16.93
2018-01-03T07:40:09.332Z,20.60
2018-01-03T07:42:36.914Z,15.03
2018-01-03T07:45:04.877Z,15.27
2018-01-03T07:47:32.847Z,18.10
2018-01-03T07:50:00.423Z,18.13
2018-01-03T07:52:28.375Z,17.93
2018-01-03T07:54:55.975Z,19.87
2018-01-03T07:57:23.559Z,18.37
2018-01-03T07:59:51.179Z,27.27
2018-01-03T08:02:18.820Z,18.87
2018-01-03T08:04:46.395Z,21.43
2018-01-03T08:07:13.999Z,17.63
2018-01-03T08:09:41.586Z,28.37
2018-01-03T08:12:09.313Z,22.50
2018-01-03T08:14:36.969Z,13.70
2018-01-03T08:17:04.631Z,14.10
2018-01-03T08:19:32.422Z,12.50
2018-01-03T08:22:00.073Z,12.87
2018-01-03T08:24:27.774Z,13.93
2018-01-03T08:26:55.391Z,12.43
2018-01-03T08:29:22.976Z,15.33
2018-01-03T08:31:50.885Z,12.60
2018-01-03T08:34:18.464Z,14.10
2018-01-03T08:36:46.083Z,14.43
2018-01-03T08:39:13.673Z,10.93
2018-01-03T08:41:41.254Z,12.77
2018-01-03T08:44:08.861Z,11.23
2018-01-03T08:46:36.435Z,12.10
2018-01-03T08:49:04.430Z,18.07
2018-01-03T08:51:32.018Z,13.20
2018-01-03T08:53:59.613Z,14.00
2018-01-03T08:56:27.235Z,11.30
2018-01-03T08:58:54.816Z,13.73
2018-01-03T09:01:22.596Z,11.90
2018-01-03T09:03:50.172Z,12.50
2018-01-03T09:06:18.069Z,13.30
2018-01-03T09:08:45.664Z,15.10
2018-01-03T09:11:13.243Z,17.17
2018-01-03T09:13:40.856Z,13.80
2018-01-03T09:16:08.439Z,15.37
2018-01-03T09:18:36.024Z,12.30
2018-01-03T09:21:03.623Z,14.53
2018-01-03T09:23:31.246Z,16.00
2018-01-03T09:25:58.867Z,12.50
2018-01-03T09:28:26.498Z,12.07
2018-01-03T09:30:54.094Z,16.67
2018-01-03T09:33:22.062Z,14.53
2018-01-03T09:35:49.691Z,11.07
2018-01-03T09:38:17.351Z,11.60
2018-01-03T09:40:44.928Z,11.80
2018-01-03T09:43:13.074Z,12.03
2018-01-03T09:45:40.676Z,11.20
2018-01-03T09:48:08.271Z,10.87
2018-01-03T09:50:35.909Z,11.73
2018-01-03T09:53:03.491Z,10.93
2018-01-03T09:55:31.099Z,10.20
2018-01-03T09:57:58.708Z,10.97
2018-01-03T10:00:26.324Z,13.20
2018-01-03T10:02:54.038Z,11.20
2018-01-03T10:05:21.611Z,11.50
2018-01-03T10:07:49.230Z,10.80
2018-01-03T10:10:16.905Z,12.93
2018-01-03T10:12:44.492Z,10.53
2018-01-03T10:15:12.116Z,11.20
2018-01-03T10:17:39.985Z,10.20
2018-01-03T10:20:07.567Z,11.60
2018-01-03T10:22:35.620Z,12.13
2018-01-03T10:25:03.300Z,17.43
2018-01-03T10:27:30.955Z,12.53
2018-01-03T10:29:59.274Z,11.33
2018-01-03T10:32:26.914Z,10.67
2018-01-03T10:34:55.481Z,11.13
2018-01-03T10:37:23.452Z,11.60
2018-01-03T10:39:51.406Z,13.10
2018-01-03T10:42:19.044Z,12.20
2018-01-03T10:44:46.640Z,11.17
2018-01-03T10:47:14.307Z,13.23
2018-01-03T10:49:41.894Z,10.50
2018-01-03T10:52:10.006Z,11.33
2018-01-03T10:54:38.003Z,11.77
2018-01-03T10:57:05.644Z,10.47
2018-01-03T10:59:33.255Z,11.93
2018-01-03T11:02:00.839Z,10.20
2018-01-03T11:04:29.701Z,10.57
2018-01-03T11:06:57.315Z,10.40
2018-01-03T11:09:24.897Z,10.27
2018-01-03T11:11:52.516Z,11.50
2018-01-03T11:14:21.256Z,12.60
2018-01-03T11:16:48.904Z,10.00
2018-01-03T11:19:16.785Z,13.03
2018-01-03T11:21:44.369Z,10.40
2018-01-03T11:24:11.992Z,10.20
2018-01-03T11:26:39.574Z,11.70
2018-01-03T11:29:07.191Z,14.40
2018-01-03T11:31:34.759Z,9.80
2018-01-03T11:34:02.332Z,9.43
2018-01-03T11:36:29.935Z,11.17
2018-01-03T11:38:57.883Z,11.00
2018-01-03T11:41:25.522Z,13.43
2018-01-03T11:43:53.424Z,10.80
2018-01-03T11:46:21.014Z,9.50
2018-01-03T11:48:48.609Z,9.77
2018-01-03T11:51:16.206Z,10.30
2018-01-03T11:53:43.832Z,9.37
2018-01-03T11:56:11.428Z,9.50
2018-01-03T11:58:39.057Z,9.60
2018-01-03T12:01:06.672Z,9.97
2018-01-03T12:03:34.302Z,11.00
2018-01-03T12:06:01.951Z,10.00
2018-01-03T12:08:29.527Z,11.57
2018-01-03T12:10:57.156Z,10.70
2018-01-03T12:13:25.068Z,11.50
2018-01-03T12:15:52.632Z,9.10
2018-01-03T12:18:20.238Z,8.13
2018-01-03T12:20:47.822Z,8.37
2018-01-03T12:23:15.560Z,8.23
2018-01-03T12:25:43.214Z,8.27
2018-01-03T12:28:10.788Z,8.67
2018-01-03T12:30:38.415Z,8.93
2018-01-03T12:33:06.008Z,8.50
2018-01-03T12:35:33.581Z,8.27
2018-01-03T12:38:01.216Z,14.77
2018-01-03T12:40:28.788Z,8.50
2018-01-03T12:42:56.406Z,10.73
2018-01-03T12:45:24.009Z,8.73
2018-01-03T12:47:51.590Z,8.70
2018-01-03T12:50:19.184Z,10.60
2018-01-03T12:52:47.059Z,9.67
2018-01-03T12:55:14.670Z,9.00
2018-01-03T12:57:42.265Z,9.07
2018-01-03T13:00:09.877Z,12.80
2018-01-03T13:02:37.491Z,21.07
2018-01-03T13:05:05.066Z,11.43
2018-01-03T13:07:32.705Z,14.03
2018-01-03T13:10:00.301Z,11.40
2018-01-03T13:12:27.892Z,9.90
2018-01-03T13:14:55.527Z,8.43
2018-01-03T13:17:23.148Z,10.50
2018-01-03T13:19:50.761Z,9.57
2018-01-03T13:22:18.342Z,10.23
2018-01-03T13:24:45.927Z,14.00
2018-01-03T13:27:13.526Z,17.13
2018-01-03T13:29:41.204Z,13.53
2018-01-03T13:32:08.909Z,11.00
2018-01-03T13:34:36.786Z,13.90
2018-01-03T13:37:04.798Z,17.87
2018-01-03T13:39:32.415Z,13.17
2018-01-03T13:42:00.018Z,10.13
2018-01-03T13:44:27.684Z,18.23
2018-01-03T13:46:55.277Z,16.33
2018-01-03T13:49:22.910Z,17.10
2018-01-03T13:51:50.884Z,13.30
2018-01-03T13:54:18.742Z,12.47
2018-01-03T13:56:46.368Z,22.17
2018-01-03T13:59:13.995Z,10.63
2018-01-03T14:01:41.863Z,16.13
2018-01-03T14:04:09.476Z,11.53
2018-01-03T14:06:37.069Z,17.83
2018-01-03T14:09:04.697Z,14.20
2018-01-03T14:11:32.276Z,10.40
2018-01-03T14:13:59.879Z,28.60
2018-01-03T14:16:27.562Z,13.80
2018-01-03T14:18:55.584Z,10.07
2018-01-03T14:21:23.252Z,18.50
2018-01-03T14:23:50.837Z,10.27
2018-01-03T14:26:18.416Z,10.83
2018-01-03T14:28:46.142Z,12.20
2018-01-03T14:31:13.751Z,15.33
2018-01-03T14:33:41.765Z,28.23
2018-01-03T14:36:09.654Z,15.07
2018-01-03T14:38:37.501Z,16.20
2018-01-03T14:41:05.111Z,23.10
2018-01-03T14:43:32.736Z,28.57
2018-01-03T14:46:00.853Z,12.47
2018-01-03T14:48:28.441Z,12.30
2018-01-03T14:50:56.040Z,8.93
2018-01-03T14:53:24.515Z,17.67
2018-01-03T14:55:52.146Z,14.10
2018-01-03T14:58:19.776Z,11.93
2018-01-03T15:00:47.455Z,15.93
2018-01-03T15:03:15.039Z,10.77
2018-01-03T15:05:42.671Z,13.10
2018-01-03T15:08:10.266Z,16.30
2018-01-03T15:10:37.874Z,13.83
2018-01-03T15:13:05.806Z,17.30
2018-01-03T15:15:33.405Z,13.33
2018-01-03T15:18:01.025Z,12.40
2018-01-03T15:20:28.673Z,11.77
2018-01-03T15:22:56.258Z,10.40
2018-01-03T15:25:23.921Z,10.57
2018-01-03T15:27:51.524Z,19.90
2018-01-03T15:30:19.355Z,16.00
2018-01-03T15:32:46.972Z,16.53
2018-01-03T15:35:14.557Z,15.13
2018-01-03T15:37:42.187Z,34.57
2018-01-03T15:40:10.026Z,28.17
2018-01-03T15:42:37.605Z,13.23
2018-01-03T15:45:05.225Z,15.60
2018-01-03T15:47:32.827Z,20.03
2018-01-03T15:50:00.442Z,17.33
2018-01-03T15:52:28.043Z,21.43
2018-01-03T15:54:55.627Z,15.93
2018-01-03T15:57:23.323Z,23.37
2018-01-03T15:59:50.917Z,15.63
2018-01-03T16:02:18.563Z,17.23
2018-01-03T16:04:46.230Z,11.20
2018-01-03T16:07:14.109Z,13.00
2018-01-03T16:09:41.717Z,17.60
2018-01-03T16:12:09.298Z,11.63
2018-01-03T16:14:36.907Z,16.30
2018-01-03T16:17:04.529Z,16.53
2018-01-03T16:19:32.117Z,14.90
2018-01-03T16:21:59.731Z,10.60
2018-01-03T16:24:27.544Z,14.63
2018-01-03T16:26:55.179Z,9.60
2018-01-03T16:29:22.775Z,13.23
2018-01-03T16:31:50.385Z,16.47
2018-01-03T16:34:18.026Z,12.27
2018-01-03T16:36:45.631Z,10.23
2018-01-03T16:39:13.305Z,11.17
2018-01-03T16:41:40.881Z,13.60
2018-01-03T16:44:08.512Z,20.83
2018-01-03T16:46:36.169Z,16.10
2018-01-03T16:49:03.756Z,12.33
2018-01-03T16:51:36.941Z,9.80
2018-01-03T16:54:04.553Z,9.30
2018-01-03T16:56:32.177Z,10.23
2018-01-03T16:58:59.792Z,15.47
2018-01-03T17:01:27.378Z,9.73
2018-01-03T17:03:55.022Z,12.30
2018-01-03T17:06:22.626Z,9.50
2018-01-03T17:08:50.219Z,9.50
2018-01-03T17:11:18.149Z,9.53
2018-01-03T17:13:45.722Z,8.70
2018-01-03T17:16:13.672Z,10.20
2018-01-03T17:18:41.652Z,11.57
2018-01-03T17:21:09.314Z,8.63
2018-01-03T17:23:36.921Z,9.10
2018-01-03T17:26:04.510Z,8.50
2018-01-03T17:28:32.227Z,10.53
2018-01-03T17:30:59.857Z,12.17
2018-01-03T17:33:27.456Z,11.67
2018-01-03T17:35:55.397Z,8.97
2018-01-03T17:38:22.993Z,9.23
2018-01-03T17:40:50.606Z,9.40
2018-01-03T17:43:18.175Z,11.00
2018-01-03T17:45:45.904Z,10.10
2018-01-03T17:48:13.907Z,10.47
2018-01-03T17:50:41.516Z,11.90
2018-01-03T17:53:10.574Z,10.33
2018-01-03T17:55:38.741Z,10.60
2018-01-03T17:58:06.329Z,10.93
2018-01-03T18:00:33.948Z,9.00
2018-01-03T18:03:01.527Z,8.50
2018-01-03T18:05:29.499Z,9.27
2018-01-03T18:07:57.085Z,14.03
2018-01-03T18:10:24.675Z,9.73
2018-01-03T18:12:52.584Z,11.20
2018-01-03T18:15:20.456Z,9.03
2018-01-03T18:17:48.322Z,9.43
2018-01-03T18:20:16.244Z,12.40
2018-01-03T18:22:43.807Z,9.23
2018-01-03T18:25:11.403Z,8.90
2018-01-03T18:27:39.072Z,8.73
2018-01-03T18:30:06.689Z,8.90
2018-01-03T18:32:34.270Z,9.80
2018-01-03T18:35:01.865Z,9.00
2018-01-03T18:37:29.544Z,12.23
2018-01-03T18:39:57.125Z,9.30
2018-01-03T18:42:25.051Z,9.00
2018-01-03T18:44:52.919Z,9.67
2018-01-03T18:47:20.519Z,9.33
2018-01-03T18:49:48.242Z,9.13
2018-01-03T18:52:15.808Z,8.80
2018-01-03T18:54:43.576Z,9.07
2018-01-03T18:57:11.196Z,9.37
2018-01-03T18:59:38.778Z,8.53
2018-01-03T19:02:07.390Z,9.83
2018-01-03T19:04:35.044Z,9.10
2018-01-03T19:07:02.659Z,9.20
2018-01-03T19:09:30.261Z,12.97
2018-01-03T19:11:57.833Z,9.17
2018-01-03T19:14:25.444Z,10.67
2018-01-03T19:16:53.362Z,9.87
2018-01-03T19:19:21.044Z,10.70
2018-01-03T19:21:48.618Z,11.43
2018-01-03T19:24:16.269Z,11.13
2018-01-03T19:26:43.893Z,10.80
2018-01-03T19:29:11.785Z,10.80
2018-01-03T19:31:39.399Z,10.17
2018-01-03T19:34:07.023Z,12.50
2018-01-03T19:36:34.605Z,14.33
2018-01-03T19:39:03.401Z,10.20
2018-01-03T19:41:31.105Z,9.60
2018-01-03T19:43:59.002Z,10.13
2018-01-03T19:46:26.583Z,15.50
2018-01-03T19:48:54.168Z,10.80
2018-01-03T19:51:21.776Z,12.60
2018-01-03T19:53:49.373Z,17.60
2018-01-03T19:56:17.307Z,14.43
2018-01-03T19:58:45.182Z,15.43
2018-01-03T20:01:12.762Z,11.43
2018-01-03T20:03:40.379Z,14.43
2018-01-03T20:06:07.980Z,11.90
2018-01-03T20:08:35.605Z,9.40
2018-01-03T20:11:03.220Z,13.33
2018-01-03T20:13:30.858Z,12.77
2018-01-03T20:15:58.576Z,8.50
2018-01-03T20:18:26.252Z,9.53
2018-01-03T20:20:53.859Z,9.73
2018-01-03T20:23:21.556Z,9.97
2018-01-03T20:25:49.171Z,10.10
2018-01-03T20:28:16.903Z,11.80
2018-01-03T20:30:44.792Z,8.00
2018-01-03T20:33:12.516Z,9.77
2018-01-03T20:35:40.423Z,7.93
2018-01-03T20:38:08.066Z,8.53
2018-01-03T20:40:35.756Z,8.80
2018-01-03T20:43:03.719Z,10.30
2018-01-03T20:45:31.589Z,10.53
2018-01-03T20:48:00.519Z,10.90
2018-01-03T20:50:28.484Z,9.90
2018-01-03T20:52:56.100Z,9.10
2018-01-03T20:55:23.739Z,8.90
2018-01-03T20:57:51.362Z,10.60
2018-01-03T21:00:19.315Z,8.60
2018-01-03T21:02:46.935Z,11.07
2018-01-03T21:05:14.568Z,13.97
2018-01-03T21:07:42.153Z,10.70
2018-01-03T21:10:09.789Z,19.33
2018-01-03T21:12:37.416Z,10.73
2018-01-03T21:15:05.953Z,10.67
2018-01-03T21:17:33.564Z,13.53
2018-01-03T21:20:01.531Z,10.87
2018-01-03T21:22:29.144Z,9.67
2018-01-03T21:24:56.787Z,11.80
2018-01-03T21:27:24.391Z,9.20
2018-01-03T21:29:52.047Z,10.67
2018-01-03T21:32:19.652Z,12.43
2018-01-03T21:34:47.310Z,10.63
2018-01-03T21:37:15.179Z,10.07
2018-01-03T21:39:42.860Z,12.00
2018-01-03T21:42:10.806Z,8.73
2018-01-03T21:44:38.390Z,10.77
2018-01-03T21:47:06.005Z,9.13
2018-01-03T21:49:33.598Z,9.17
2018-01-03T21:52:01.416Z,9.40
2018-01-03T21:54:29.818Z,10.93
2018-01-03T21:56:57.428Z,15.10
2018-01-03T21:59:25.052Z,12.40
2018-01-03T22:01:52.657Z,14.20
2018-01-03T22:04:20.497Z,8.97
2018-01-03T22:06:48.471Z,8.73
2018-01-03T22:09:16.048Z,19.37
2018-01-03T22:11:43.675Z,11.67
2018-01-03T22:14:11.256Z,10.87
2018-01-03T22:16:38.836Z,9.63
2018-01-03T22:19:06.430Z,16.07
2018-01-03T22:21:34.014Z,11.87
2018-01-03T22:24:01.628Z,11.50
2018-01-03T22:26:29.230Z,8.83
2018-01-03T22:28:57.138Z,10.43
2018-01-03T22:31:24.747Z,9.20
2018-01-03T22:33:52.327Z,15.97
2018-01-03T22:36:19.896Z,9.77
2018-01-03T22:38:47.519Z,16.30
2018-01-03T22:41:15.100Z,10.63
2018-01-03T22:43:42.686Z,10.47
2018-01-03T22:46:10.422Z,11.47
2018-01-03T22:48:37.999Z,13.30
2018-01-03T22:51:05.996Z,10.10
2018-01-03T22:53:33.607Z,18.17
2018-01-03T22:56:01.218Z,21.17
2018-01-03T22:58:28.832Z,13.10
2018-01-03T23:03:30.320Z,11.20
2018-01-03T23:05:57.900Z,17.23
2018-01-03T23:08:25.484Z,13.70
2018-01-03T23:10:53.088Z,11.10
2018-01-03T23:13:20.728Z,9.57
2018-01-03T23:15:48.358Z,18.60
2018-01-03T23:18:15.981Z,15.30
2018-01-03T23:20:43.564Z,11.90
2018-01-03T23:23:11.168Z,12.53
2018-01-03T23:25:38.784Z,10.17
2018-01-03T23:28:06.442Z,10.43
2018-01-03T23:30:34.028Z,13.30
2018-01-03T23:33:01.910Z,13.30
2018-01-03T23:35:29.557Z,10.53
2018-01-03T23:37:57.424Z,8.73
2018-01-03T23:40:25.045Z,13.30
2018-01-03T23:42:52.689Z,9.20
2018-01-03T23:45:20.292Z,9.10
2018-01-03T23:47:47.927Z,14.97
2018-01-03T23:50:15.846Z,10.17
2018-01-03T23:52:43.470Z,8.90
2018-01-03T23:55:11.076Z,15.63
2018-01-03T23:57:38.676Z,23.30
